createdAt,value
2022-12-31T00:00:13.625Z,4.90
2022-12-31T00:02:45.215Z,5.50
2022-12-31T00:05:16.692Z,2.77
2022-12-31T00:07:48.306Z,3.70
2022-12-31T00:10:19.930Z,4.65
2022-12-31T00:12:53.571Z,4.45
2022-12-31T00:15:25.188Z,3.33
2022-12-31T00:17:56.751Z,5.10
2022-12-31T00:20:28.439Z,3.45
2022-12-31T00:22:59.962Z,3.92
2022-12-31T00:25:31.435Z,3.05
2022-12-31T00:28:02.966Z,2.65
2022-12-31T00:30:35.282Z,3.52
2022-12-31T00:33:06.893Z,4.12
2022-12-31T00:35:38.337Z,4.12
2022-12-31T00:38:10.081Z,2.72
2022-12-31T00:40:41.577Z,3.60
2022-12-31T00:43:12.928Z,2.60
2022-12-31T00:45:44.605Z,2.33
2022-12-31T00:48:15.989Z,4.42
2022-12-31T00:50:47.644Z,2.70
2022-12-31T00:53:19.071Z,4.30
2022-12-31T00:55:50.906Z,3.83
2022-12-31T00:58:22.377Z,3.40
2022-12-31T01:00:53.813Z,3.92
2022-12-31T01:03:25.211Z,4.00
2022-12-31T01:06:00.348Z,3.27
2022-12-31T01:08:32.070Z,3.80
2022-12-31T01:11:20.478Z,3.42
2022-12-31T01:13:54.341Z,4.25
2022-12-31T01:16:28.692Z,4.58
2022-12-31T01:19:01.712Z,2.65
2022-12-31T01:21:33.712Z,5.10
2022-12-31T01:24:05.711Z,3.85
2022-12-31T01:26:37.445Z,3.55
2022-12-31T01:29:10.165Z,3.55
2022-12-31T01:31:42.292Z,2.50
2022-12-31T01:34:13.966Z,2.70
2022-12-31T01:36:45.377Z,2.52
2022-12-31T01:39:16.777Z,2.92
2022-12-31T01:41:49.061Z,3.37
2022-12-31T01:44:54.556Z,2.65
2022-12-31T01:47:34.045Z,3.62
2022-12-31T01:50:11.194Z,2.27
2022-12-31T01:52:45.692Z,2.27
2022-12-31T01:55:20.842Z,3.27
2022-12-31T01:57:54.967Z,2.60
2022-12-31T02:00:26.368Z,2.02
2022-12-31T02:02:58.000Z,2.85
2022-12-31T02:05:32.335Z,1.65
2022-12-31T02:08:06.373Z,1.92
2022-12-31T02:10:37.734Z,2.37
2022-12-31T02:13:09.621Z,1.67
2022-12-31T02:15:47.471Z,1.52
2022-12-31T02:18:23.790Z,0.65
2022-12-31T02:21:22.355Z,0.80
2022-12-31T02:24:20.439Z,1.12
2022-12-31T02:27:02.590Z,2.02
2022-12-31T02:30:08.802Z,1.87
2022-12-31T02:32:52.202Z,1.60
2022-12-31T02:35:27.193Z,1.47
2022-12-31T02:38:02.708Z,4.12
2022-12-31T02:40:37.583Z,2.30
2022-12-31T02:43:08.933Z,0.80
2022-12-31T02:45:43.281Z,0.80
2022-12-31T02:48:23.165Z,0.80
2022-12-31T02:50:58.555Z,1.20
2022-12-31T02:53:46.290Z,1.20
2022-12-31T02:56:21.948Z,0.57
2022-12-31T02:59:16.264Z,6.58
2022-12-31T03:02:08.315Z,2.85
2022-12-31T03:04:41.455Z,1.00
2022-12-31T03:07:15.795Z,0.72
2022-12-31T03:09:47.393Z,0.40
2022-12-31T03:12:39.899Z,0.70
2022-12-31T03:15:20.610Z,4.03
2022-12-31T03:17:55.361Z,1.45
2022-12-31T03:20:48.781Z,3.27
2022-12-31T03:23:23.196Z,1.42
2022-12-31T03:25:56.650Z,2.67
2022-12-31T03:28:30.141Z,1.77
2022-12-31T03:31:03.695Z,1.77
2022-12-31T03:33:37.546Z,1.60
2022-12-31T03:36:12.667Z,1.62
2022-12-31T03:38:48.469Z,3.58
2022-12-31T03:41:17.531Z,0.85
2022-12-31T03:43:48.931Z,3.30
2022-12-31T03:46:20.416Z,1.92
2022-12-31T03:48:51.693Z,1.22
2022-12-31T03:51:23.103Z,0.93
2022-12-31T03:53:54.430Z,2.72
2022-12-31T03:56:26.166Z,2.12
2022-12-31T03:58:57.504Z,1.95
2022-12-31T04:01:29.383Z,1.22
2022-12-31T04:04:00.734Z,0.95
2022-12-31T04:06:32.228Z,1.67
2022-12-31T04:09:03.625Z,3.77
2022-12-31T04:11:35.184Z,1.27
2022-12-31T04:14:06.691Z,1.17
2022-12-31T04:16:38.150Z,1.35
2022-12-31T04:19:09.549Z,1.37
2022-12-31T04:21:40.968Z,1.15
2022-12-31T04:24:12.808Z,1.02
2022-12-31T04:26:44.673Z,0.55
2022-12-31T04:29:16.034Z,0.60
2022-12-31T04:31:47.571Z,1.50
2022-12-31T04:34:19.621Z,1.57
2022-12-31T04:36:51.324Z,1.37
2022-12-31T04:39:23.707Z,1.00
2022-12-31T04:41:55.369Z,2.65
2022-12-31T04:44:26.750Z,0.75
2022-12-31T04:46:58.318Z,0.85
2022-12-31T04:49:30.643Z,1.05
2022-12-31T04:52:02.033Z,0.82
2022-12-31T04:54:33.427Z,0.80
2022-12-31T04:57:05.212Z,0.80
2022-12-31T04:59:36.611Z,1.75
2022-12-31T05:02:08.329Z,2.12
2022-12-31T05:04:40.237Z,1.47
2022-12-31T05:07:11.619Z,2.85
2022-12-31T05:09:43.033Z,1.40
2022-12-31T05:12:14.368Z,1.32
2022-12-31T05:14:45.830Z,1.40
2022-12-31T05:17:17.229Z,2.37
2022-12-31T05:19:48.675Z,1.25
2022-12-31T05:22:32.233Z,2.98
2022-12-31T05:25:03.669Z,1.27
2022-12-31T05:27:37.240Z,1.90
2022-12-31T05:30:11.639Z,2.00
2022-12-31T05:32:42.965Z,2.02
2022-12-31T05:35:14.972Z,6.70
2022-12-31T05:37:46.560Z,1.10
2022-12-31T05:40:18.238Z,1.12
2022-12-31T05:42:50.404Z,1.65
2022-12-31T05:45:26.742Z,0.85
2022-12-31T05:47:54.786Z,1.00
2022-12-31T05:50:26.251Z,1.95
2022-12-31T05:52:57.556Z,2.67
2022-12-31T05:55:29.137Z,1.37
2022-12-31T05:58:00.507Z,2.47
2022-12-31T06:00:31.953Z,2.12
2022-12-31T06:03:03.376Z,3.05
2022-12-31T06:05:34.912Z,1.50
2022-12-31T06:08:06.748Z,2.65
2022-12-31T06:10:38.172Z,6.08
2022-12-31T06:13:11.214Z,8.75
2022-12-31T06:15:43.061Z,4.40
2022-12-31T06:18:14.369Z,3.02
2022-12-31T06:20:45.849Z,1.67
2022-12-31T06:23:17.240Z,1.67
2022-12-31T06:25:48.775Z,0.90
2022-12-31T06:28:20.773Z,2.55
2022-12-31T06:30:52.587Z,2.98
2022-12-31T06:33:23.907Z,2.58
2022-12-31T06:35:58.643Z,2.60
2022-12-31T06:38:32.617Z,2.20
2022-12-31T06:41:05.981Z,1.95
2022-12-31T06:43:38.802Z,2.08
2022-12-31T06:46:12.142Z,3.55
2022-12-31T06:48:44.899Z,4.12
2022-12-31T06:51:19.024Z,13.35
2022-12-31T06:53:52.017Z,4.20
2022-12-31T06:56:34.032Z,5.42
2022-12-31T06:59:02.857Z,4.10
2022-12-31T07:01:46.882Z,4.55
2022-12-31T07:04:35.977Z,2.33
2022-12-31T07:07:10.997Z,3.02
2022-12-31T07:09:46.080Z,4.22
2022-12-31T07:12:21.603Z,6.35
2022-12-31T07:14:56.004Z,6.25
2022-12-31T07:17:31.079Z,3.85
2022-12-31T07:20:05.779Z,6.80
2022-12-31T07:22:38.215Z,3.95
2022-12-31T07:25:15.438Z,6.00
2022-12-31T07:27:57.030Z,4.05
2022-12-31T07:30:32.096Z,3.75
2022-12-31T07:33:17.003Z,5.67
2022-12-31T07:35:54.381Z,7.55
2022-12-31T07:38:29.945Z,5.28
2022-12-31T07:41:09.925Z,3.37
2022-12-31T07:43:48.160Z,3.87
2022-12-31T07:46:22.671Z,3.35
2022-12-31T07:48:55.887Z,3.75
2022-12-31T07:51:29.352Z,3.33
2022-12-31T07:54:00.693Z,2.40
2022-12-31T07:56:32.880Z,2.87
2022-12-31T07:59:09.122Z,4.75
2022-12-31T08:01:46.363Z,3.08
2022-12-31T08:04:24.042Z,2.52
2022-12-31T08:07:01.594Z,3.22
2022-12-31T08:09:40.814Z,2.10
2022-12-31T08:12:12.602Z,2.95
2022-12-31T08:14:48.026Z,1.60
2022-12-31T08:17:21.331Z,3.00
2022-12-31T08:19:53.821Z,2.37
2022-12-31T08:22:41.564Z,1.47
2022-12-31T08:25:20.799Z,2.87
2022-12-31T08:27:59.110Z,3.17
2022-12-31T08:30:51.359Z,3.33
2022-12-31T08:33:25.757Z,2.85
2022-12-31T08:36:07.116Z,2.83
2022-12-31T08:38:43.284Z,2.85
2022-12-31T08:41:19.543Z,4.67
2022-12-31T08:43:55.924Z,2.90
2022-12-31T08:46:31.637Z,1.32
2022-12-31T08:49:04.439Z,3.00
2022-12-31T08:51:38.987Z,9.75
2022-12-31T08:54:13.460Z,11.80
2022-12-31T08:56:50.801Z,7.78
2022-12-31T08:59:29.950Z,4.90
2022-12-31T09:02:46.276Z,4.17
2022-12-31T09:08:00.918Z,2.42
2022-12-31T09:10:35.437Z,3.22
2022-12-31T09:13:09.951Z,3.58
2022-12-31T09:15:46.536Z,3.50
2022-12-31T09:18:18.853Z,3.85
2022-12-31T09:20:50.874Z,5.42
2022-12-31T09:23:25.885Z,4.72
2022-12-31T09:26:00.856Z,2.62
2022-12-31T09:28:40.324Z,2.52
2022-12-31T09:31:15.341Z,3.17
2022-12-31T09:33:51.874Z,3.35
2022-12-31T09:36:26.451Z,3.65
2022-12-31T09:39:02.763Z,4.28
2022-12-31T09:42:00.916Z,5.08
2022-12-31T09:45:21.703Z,5.10
2022-12-31T09:48:18.460Z,3.47
2022-12-31T09:51:05.867Z,13.08
2022-12-31T09:54:04.694Z,14.03
2022-12-31T09:56:39.473Z,8.18
2022-12-31T09:59:15.942Z,7.45
2022-12-31T10:01:52.161Z,6.72
2022-12-31T10:04:38.441Z,5.60
2022-12-31T10:07:35.657Z,6.72
2022-12-31T10:10:13.045Z,3.92
2022-12-31T10:13:05.262Z,4.97
2022-12-31T10:15:48.751Z,4.60
2022-12-31T10:18:26.902Z,3.35
2022-12-31T10:21:09.451Z,2.58
2022-12-31T10:23:57.401Z,1.45
2022-12-31T10:26:37.758Z,2.42
2022-12-31T10:29:16.551Z,3.12
2022-12-31T10:31:51.930Z,2.37
2022-12-31T10:34:27.507Z,2.20
2022-12-31T10:37:02.143Z,2.52
2022-12-31T10:40:06.800Z,3.55
2022-12-31T10:43:27.488Z,3.02
2022-12-31T10:46:22.464Z,3.70
2022-12-31T10:49:32.557Z,2.22
2022-12-31T10:52:44.866Z,2.20
2022-12-31T10:56:15.279Z,5.97
2022-12-31T10:59:28.950Z,3.15
2022-12-31T11:02:04.411Z,7.28
2022-12-31T11:05:05.017Z,1.47
2022-12-31T11:08:00.039Z,1.93
2022-12-31T11:10:58.927Z,4.42
2022-12-31T11:14:06.597Z,2.42
2022-12-31T11:17:06.067Z,3.47
2022-12-31T11:19:42.087Z,1.90
2022-12-31T11:25:32.741Z,25.12
2022-12-31T11:28:18.828Z,7.58
2022-12-31T11:30:59.208Z,2.92
2022-12-31T11:33:34.661Z,1.98
2022-12-31T11:36:16.356Z,3.58
2022-12-31T11:38:52.297Z,4.85
2022-12-31T11:41:28.562Z,3.27
2022-12-31T11:44:05.434Z,3.87
2022-12-31T11:47:00.526Z,2.15
2022-12-31T11:49:57.944Z,1.27
2022-12-31T11:52:36.602Z,2.72
2022-12-31T11:55:19.194Z,3.65
2022-12-31T11:57:53.306Z,1.35
2022-12-31T12:00:26.505Z,1.27
2022-12-31T12:03:00.580Z,1.10
2022-12-31T12:05:33.100Z,1.47
2022-12-31T12:08:05.325Z,1.85
2022-12-31T12:10:40.762Z,1.72
2022-12-31T12:13:22.648Z,4.10
2022-12-31T12:15:56.531Z,3.55
2022-12-31T12:18:31.543Z,2.22
2022-12-31T12:21:08.626Z,1.75
2022-12-31T12:23:42.717Z,1.02
2022-12-31T12:26:30.531Z,1.17
2022-12-31T12:29:10.349Z,1.75
2022-12-31T12:31:42.011Z,2.12
2022-12-31T12:34:25.253Z,2.50
2022-12-31T12:36:56.723Z,1.77
2022-12-31T12:39:31.117Z,1.05
2022-12-31T12:42:04.836Z,2.35
2022-12-31T12:44:36.425Z,2.35
2022-12-31T12:47:10.637Z,1.67
2022-12-31T12:49:44.687Z,1.20
2022-12-31T12:52:59.496Z,1.07
2022-12-31T12:55:34.665Z,2.45
2022-12-31T12:58:10.774Z,2.42
2022-12-31T13:00:46.764Z,3.00
2022-12-31T13:04:07.696Z,5.05
2022-12-31T13:06:28.589Z,3.65
2022-12-31T13:09:07.841Z,1.90
2022-12-31T13:11:44.058Z,4.10
2022-12-31T13:14:20.256Z,2.92
2022-12-31T13:16:55.978Z,2.42
2022-12-31T13:19:32.478Z,2.98
2022-12-31T13:22:07.528Z,4.17
2022-12-31T13:24:47.664Z,2.12
2022-12-31T13:27:22.371Z,1.95
2022-12-31T13:29:56.679Z,2.22
2022-12-31T13:32:31.374Z,2.65
2022-12-31T13:35:08.895Z,3.47
2022-12-31T13:37:43.129Z,3.30
2022-12-31T13:40:20.827Z,2.85
2022-12-31T13:42:56.999Z,2.67
2022-12-31T13:45:31.404Z,3.50
2022-12-31T13:48:06.643Z,2.40
2022-12-31T13:50:42.323Z,2.17
2022-12-31T13:53:20.192Z,2.20
2022-12-31T13:55:57.046Z,2.92
2022-12-31T13:58:33.444Z,2.05
2022-12-31T14:01:10.434Z,1.90
2022-12-31T14:03:46.797Z,1.75
2022-12-31T14:06:22.291Z,2.22
2022-12-31T14:08:54.707Z,3.42
2022-12-31T14:11:34.820Z,3.47
2022-12-31T14:14:13.933Z,3.90
2022-12-31T14:16:51.262Z,3.72
2022-12-31T14:19:32.493Z,3.10
2022-12-31T14:22:04.441Z,4.55
2022-12-31T14:24:43.889Z,8.30
2022-12-31T14:27:19.421Z,10.48
2022-12-31T14:29:53.728Z,5.12
2022-12-31T14:32:34.778Z,3.42
2022-12-31T14:37:43.671Z,2.42
2022-12-31T14:40:20.796Z,3.55
2022-12-31T14:42:58.936Z,5.10
2022-12-31T14:45:36.208Z,3.80
2022-12-31T14:48:16.007Z,4.47
2022-12-31T14:50:47.829Z,3.70
2022-12-31T14:53:24.133Z,4.00
2022-12-31T14:56:00.924Z,4.67
2022-12-31T14:58:35.217Z,6.17
2022-12-31T15:01:10.430Z,5.03
2022-12-31T15:03:46.051Z,5.22
2022-12-31T15:06:50.148Z,4.58
2022-12-31T15:09:32.547Z,4.15
2022-12-31T15:12:14.206Z,53.63
2022-12-31T15:14:58.717Z,21.73
2022-12-31T15:17:36.660Z,7.55
2022-12-31T15:20:41.266Z,4.85
2022-12-31T15:23:20.560Z,5.60
2022-12-31T15:25:55.233Z,4.20
2022-12-31T15:28:32.887Z,6.72
2022-12-31T15:31:14.475Z,4.15
2022-12-31T15:33:44.919Z,7.33
2022-12-31T15:36:20.405Z,4.90
2022-12-31T15:38:52.289Z,4.85
2022-12-31T15:41:29.963Z,5.22
2022-12-31T15:44:04.438Z,6.20
2022-12-31T15:46:39.522Z,6.70
2022-12-31T15:49:16.528Z,4.75
2022-12-31T15:51:51.650Z,7.72
2022-12-31T15:54:27.463Z,13.50
2022-12-31T15:57:04.235Z,7.17
2022-12-31T15:59:33.665Z,8.60
2022-12-31T16:02:05.488Z,5.97
2022-12-31T16:04:38.670Z,4.97
2022-12-31T16:07:12.575Z,5.25
2022-12-31T16:09:45.015Z,5.42
2022-12-31T16:12:21.928Z,12.80
2022-12-31T16:14:55.525Z,7.90
2022-12-31T16:17:30.063Z,9.53
2022-12-31T16:20:03.133Z,6.70
2022-12-31T16:22:43.126Z,7.17
2022-12-31T16:25:31.137Z,6.85
2022-12-31T16:27:56.954Z,8.80
2022-12-31T16:30:31.023Z,5.97
2022-12-31T16:33:04.047Z,12.05
2022-12-31T16:35:36.931Z,9.30
2022-12-31T16:38:16.915Z,7.40
2022-12-31T16:40:55.536Z,10.98
2022-12-31T16:43:29.433Z,8.33
2022-12-31T16:46:03.523Z,15.43
2022-12-31T16:48:41.408Z,10.38
2022-12-31T16:51:16.991Z,7.90
2022-12-31T16:53:49.391Z,8.45
2022-12-31T16:56:27.948Z,7.90
2022-12-31T16:59:03.601Z,9.43
2022-12-31T17:01:38.046Z,10.50
2022-12-31T17:04:12.083Z,10.65
2022-12-31T17:06:44.616Z,13.38
2022-12-31T17:09:20.352Z,14.65
2022-12-31T17:11:55.005Z,10.53
2022-12-31T17:14:28.083Z,12.07
2022-12-31T17:17:03.588Z,12.98
2022-12-31T17:19:40.695Z,10.72
2022-12-31T17:22:16.276Z,19.55
2022-12-31T17:24:51.202Z,19.30
2022-12-31T17:27:22.676Z,22.37
2022-12-31T17:29:54.125Z,23.15
2022-12-31T17:32:34.371Z,20.88
2022-12-31T17:35:28.889Z,17.03
2022-12-31T17:38:30.157Z,20.32
2022-12-31T17:43:38.056Z,21.52
2022-12-31T17:46:13.810Z,24.32
2022-12-31T17:48:48.946Z,23.90
2022-12-31T17:51:24.668Z,13.90
2022-12-31T17:53:53.599Z,10.13
2022-12-31T17:56:26.092Z,15.78
2022-12-31T17:58:57.915Z,29.82
2022-12-31T18:01:29.359Z,29.52
2022-12-31T18:04:01.042Z,30.20
2022-12-31T18:06:32.405Z,19.98
2022-12-31T18:09:07.155Z,17.42
2022-12-31T18:11:39.597Z,12.78
2022-12-31T18:14:14.494Z,14.47
2022-12-31T18:16:46.068Z,13.15
2022-12-31T18:19:38.224Z,21.48
2022-12-31T18:21:51.274Z,17.35
2022-12-31T18:24:38.266Z,20.55
2022-12-31T18:27:17.132Z,15.20
2022-12-31T18:29:48.927Z,14.80
2022-12-31T18:32:24.847Z,14.78
2022-12-31T18:34:57.375Z,19.12
2022-12-31T18:37:31.026Z,25.00
2022-12-31T18:40:02.574Z,15.75
2022-12-31T18:42:34.406Z,14.30
2022-12-31T18:45:08.452Z,14.30
2022-12-31T18:47:39.917Z,15.83
2022-12-31T18:50:15.737Z,18.57
2022-12-31T18:52:47.152Z,16.65
2022-12-31T18:55:25.312Z,19.00
2022-12-31T18:57:56.742Z,17.70
2022-12-31T19:00:28.212Z,18.62
2022-12-31T19:03:01.139Z,17.75
2022-12-31T19:05:34.847Z,21.70
2022-12-31T19:08:06.797Z,17.62
2022-12-31T19:10:38.161Z,15.98
2022-12-31T19:13:12.874Z,20.32
2022-12-31T19:15:46.087Z,15.63
2022-12-31T19:18:17.904Z,19.55
2022-12-31T19:20:49.990Z,17.25
2022-12-31T19:23:22.693Z,15.53
2022-12-31T19:25:54.182Z,19.20
2022-12-31T19:28:28.637Z,28.00
2022-12-31T19:31:00.034Z,36.85
2022-12-31T19:33:31.573Z,29.10
2022-12-31T19:36:03.173Z,23.27
2022-12-31T19:38:34.935Z,15.32
2022-12-31T19:41:07.214Z,19.80
2022-12-31T19:43:38.799Z,24.55
2022-12-31T19:46:14.025Z,40.15
2022-12-31T19:48:46.209Z,43.28
2022-12-31T19:51:20.762Z,58.38
2022-12-31T19:53:52.359Z,39.75
2022-12-31T19:56:23.744Z,30.00
2022-12-31T19:58:55.297Z,30.50
2022-12-31T20:01:27.516Z,29.60
2022-12-31T20:03:59.064Z,16.50
2022-12-31T20:06:30.419Z,13.55
2022-12-31T20:09:03.142Z,20.32
2022-12-31T20:11:34.468Z,15.18
2022-12-31T20:14:05.916Z,18.85
2022-12-31T20:16:38.095Z,15.85
2022-12-31T20:19:10.672Z,25.08
2022-12-31T20:21:43.797Z,24.37
2022-12-31T20:24:15.333Z,28.20
2022-12-31T20:26:46.792Z,29.25
2022-12-31T20:29:18.469Z,25.23
2022-12-31T20:31:50.033Z,28.92
2022-12-31T20:34:21.516Z,26.93
2022-12-31T20:36:53.139Z,33.00
2022-12-31T20:39:24.669Z,30.92
2022-12-31T20:41:56.293Z,27.93
2022-12-31T20:44:27.651Z,29.77
2022-12-31T20:46:59.085Z,30.12
2022-12-31T20:50:00.938Z,39.05
2022-12-31T20:52:05.382Z,37.98
2022-12-31T20:54:37.333Z,101.25
2022-12-31T20:57:09.085Z,110.00
2022-12-31T20:59:40.560Z,90.25
2022-12-31T21:02:29.527Z,73.57
2022-12-31T21:04:48.188Z,82.57
2022-12-31T21:07:19.806Z,71.80
2022-12-31T21:09:51.152Z,55.73
2022-12-31T21:12:40.460Z,46.45
2022-12-31T21:15:13.799Z,35.55
2022-12-31T21:17:46.103Z,21.90
2022-12-31T21:20:17.621Z,27.93
2022-12-31T21:22:49.334Z,35.13
2022-12-31T21:25:20.689Z,44.48
2022-12-31T21:27:52.093Z,44.90
2022-12-31T21:30:23.594Z,47.75
2022-12-31T21:32:55.109Z,34.48
2022-12-31T21:35:48.390Z,29.05
2022-12-31T21:38:02.853Z,29.82
2022-12-31T21:40:34.725Z,27.62
2022-12-31T21:43:06.135Z,31.00
2022-12-31T21:45:37.602Z,32.23
2022-12-31T21:48:24.841Z,33.53
2022-12-31T21:50:59.661Z,33.35
2022-12-31T21:53:36.570Z,37.95
2022-12-31T21:56:11.648Z,39.60
2022-12-31T21:58:45.398Z,36.20
2022-12-31T22:01:40.029Z,45.28
2022-12-31T22:04:35.242Z,58.10
2022-12-31T22:06:44.516Z,59.83
2022-12-31T22:09:16.789Z,57.30
2022-12-31T22:11:48.339Z,51.05
2022-12-31T22:14:19.780Z,70.32
2022-12-31T22:16:51.120Z,46.08
2022-12-31T22:19:22.587Z,44.13
2022-12-31T22:21:53.987Z,43.55
2022-12-31T22:24:25.490Z,54.83
2022-12-31T22:26:57.017Z,46.95
2022-12-31T22:29:28.358Z,51.50
2022-12-31T22:32:10.885Z,58.63
2022-12-31T22:34:42.265Z,91.70
2022-12-31T22:37:35.776Z,70.17
2022-12-31T22:39:47.744Z,49.98
2022-12-31T22:42:19.238Z,42.90
2022-12-31T22:44:50.579Z,59.75
2022-12-31T22:47:22.153Z,24.90
2022-12-31T22:49:53.818Z,31.37
2022-12-31T22:52:25.329Z,26.70
2022-12-31T22:54:56.664Z,74.42
2022-12-31T22:57:28.201Z,161.05
2022-12-31T23:00:00.689Z,115.65
2022-12-31T23:02:35.943Z,90.70
2022-12-31T23:05:15.914Z,59.80
2022-12-31T23:07:40.024Z,45.05
2022-12-31T23:10:30.705Z,42.35
2022-12-31T23:13:03.800Z,41.68
2022-12-31T23:15:53.172Z,67.20
2022-12-31T23:18:42.386Z,42.10
2022-12-31T23:21:32.638Z,47.00
2022-12-31T23:24:04.483Z,71.47
2022-12-31T23:26:35.863Z,88.27
2022-12-31T23:29:07.279Z,126.97
2022-12-31T23:31:39.619Z,84.50
2022-12-31T23:34:11.152Z,100.47
2022-12-31T23:36:42.621Z,114.28
2022-12-31T23:39:14.194Z,88.40
2022-12-31T23:41:45.515Z,60.98
2022-12-31T23:44:16.989Z,57.35
2022-12-31T23:46:48.442Z,53.85
2022-12-31T23:49:20.005Z,97.00
2022-12-31T23:51:51.677Z,115.65
2022-12-31T23:54:23.115Z,106.75
2022-12-31T23:56:54.505Z,99.10
2022-12-31T23:59:25.914Z,99.75
